Airfield :







YOU CAN JOIN US ON...

 
LOGIN :

Register | Disclaimer

   EN    FR    IT 

 









Legend :    VFR   Marginal VFR   IFR   Intensive IFR   Very Intensive IFR
Visi :
Ceiling :
>= 8 km
>= 3000ft
5 to 8 km
1000 to 3000 ft
1500m to 5 km
500 to 1000 ft
800 to 1500m
200 to 500 ft
< 800m
< 200 ft
Symbols :   Thunderstorms  Fog  Heavy snow  Heavy precipitations  Wind > 20 kt






- Airport Elevation : 118 ft
- IATA code : YUL


CYUL - Montréal - Pierre-Elliott-Trudeau Int.

CURRENT METAR :
  • 211900Z 16014KT 15SM -RA BKN035 OVC045 16/14 A2993 RMK SC6SC2 SLP138 DENSITY ALT 200FT

EXPIRED METARs :
  • 211849Z 16014KT 15SM -RA BKN034 OVC045 16/14 A2993 RMK SC6SC2 -RA INTMT SLP138 DENSITY ALT 200FT
  • 211800Z 16014KT 15SM SCT040 BKN050 OVC100 15/14 A2994 RMK SC3SC3AC2 SLP142 DENSITY ALT 200FT
  • 211720Z 16012KT 15SM -RA BKN038 OVC080 15/13 A2996 RMK SC6AC2 -RA INTMT SLP148
  • 211700Z 16012KT 15SM SCT045 BKN085 OVC120 14/13 A2997 RMK SC4AC3AC1 SLP151
  • 211638Z 15011KT 15SM SCT030 BKN080 OVC120 14/13 A2999 RMK SC3AC2AC3 WSHFT 1624 SLP157

TAF TAF CYUL
Valid from the 21 at 18:00 until the 22 at 18:00 UTC


211738Z 2118/2218 17012G22KT 6SM -RA FEW007 BKN030 OVC080
TEMPO 2118/2120 21/2SM RA BR BKN007 OVC030
FM212100 25018G28KT 6SM -RA -DZ BR OVC015
TEMPO 2121/2203 P6SM NSW BKN025
FM220300 26010KT P6SM FEW030
FM220900 26008KT P6SM BKN080
FM221700 25010KT P6SM BKN020 RMK NXT FCST BY 212100Z
ATIS : ENG : +1 514-633-3037 FRA : +1 514-633-3034
CZUL FIR / North America



MET'MAP, your aeronautical weather chart ! - Copyright ORBIFLY December 2007 - Disclaimer

ORBIFLY MET'MAP TEAM :

Programming & Development : Alexandra Zaïnal
Concept & original design : Baudouin d'Aumeries
Assistance for programming : Marc-Olivier Méhu
Technical & hardware support : Manuel Goepfert

Contact : metmap@orbifly.com




SOURCES & CREDITS :

   NOAA